createdAt,value
2022-10-12T00:02:07.695Z,100538.72
2022-10-12T00:04:35.286Z,100551.53
2022-10-12T00:07:02.618Z,100549.06
2022-10-12T00:09:29.982Z,100548.28
2022-10-12T00:11:57.528Z,100543.47
2022-10-12T00:14:24.849Z,100544.31
2022-10-12T00:16:52.213Z,100548.47
2022-10-12T00:19:19.800Z,100546.81
2022-10-12T00:21:47.156Z,100552.16
2022-10-12T00:24:14.509Z,100552.16
2022-10-12T00:26:42.078Z,100545.53
2022-10-12T00:29:09.488Z,100551.72
2022-10-12T00:31:36.915Z,100550.56
2022-10-12T00:34:04.544Z,100548.47
2022-10-12T00:36:33.964Z,100553.09
2022-10-12T00:39:01.708Z,100554.75
2022-10-12T00:41:31.359Z,100549.50
2022-10-12T00:43:59.047Z,100544.50
2022-10-12T00:46:32.855Z,100542.53
2022-10-12T00:49:21.064Z,100545.69
2022-10-12T00:51:51.165Z,100547.53
2022-10-12T00:54:26.692Z,100540.44
2022-10-12T00:56:54.291Z,100547.72
2022-10-12T00:59:23.889Z,100542.34
2022-10-12T01:01:51.210Z,100551.16
2022-10-12T01:04:18.714Z,100549.50
2022-10-12T01:06:46.289Z,100551.72
2022-10-12T01:09:14.237Z,100552.19
2022-10-12T01:11:41.566Z,100553.19
2022-10-12T01:14:09.154Z,100552.69
2022-10-12T01:17:08.321Z,100553.50
2022-10-12T01:19:47.864Z,100566.59
2022-10-12T01:22:19.566Z,100560.13
2022-10-12T01:24:53.508Z,100566.91
2022-10-12T01:27:36.215Z,100575.16
2022-10-12T01:30:07.894Z,100575.53
2022-10-12T01:32:41.058Z,100578.00
2022-10-12T01:35:15.949Z,100572.00
2022-10-12T01:37:53.364Z,100570.44
2022-10-12T01:40:28.130Z,100570.03
2022-10-12T01:42:55.474Z,100573.06
2022-10-12T01:45:23.120Z,100571.75
2022-10-12T01:47:52.693Z,100571.56
2022-10-12T01:50:22.026Z,100573.53
2022-10-12T01:52:59.699Z,100582.84
2022-10-12T01:55:35.669Z,100573.69
2022-10-12T01:59:01.855Z,100570.62
2022-10-12T02:01:56.216Z,100581.12
2022-10-12T02:04:34.234Z,100585.13
2022-10-12T02:07:04.223Z,100587.16
2022-10-12T02:09:33.762Z,100587.13
2022-10-12T02:12:14.126Z,100585.63
2022-10-12T02:14:50.996Z,100581.28
2022-10-12T02:17:18.665Z,100579.25
2022-10-12T02:19:57.019Z,100579.16
2022-10-12T02:22:25.666Z,100574.22
2022-10-12T02:24:53.440Z,100577.50
2022-10-12T02:27:20.764Z,100579.34
2022-10-12T02:29:48.142Z,100577.72
2022-10-12T02:32:27.757Z,100580.69
2022-10-12T02:35:33.208Z,100572.53
2022-10-12T02:38:03.990Z,100569.88
2022-10-12T02:40:57.561Z,100571.53
2022-10-12T02:43:54.235Z,100565.69
2022-10-12T02:46:21.569Z,100564.41
2022-10-12T02:48:49.709Z,100567.84
2022-10-12T02:51:17.041Z,100569.44
2022-10-12T02:53:45.233Z,100577.03
2022-10-12T02:56:13.631Z,100577.19
2022-10-12T02:58:44.462Z,100578.28
2022-10-12T03:01:12.103Z,100578.66
2022-10-12T03:03:40.542Z,100581.97
2022-10-12T03:06:08.105Z,100574.84
2022-10-12T03:08:35.590Z,100582.75
2022-10-12T03:11:04.121Z,100573.41
2022-10-12T03:13:31.469Z,100575.34
2022-10-12T03:16:05.801Z,100586.34
2022-10-12T03:18:34.357Z,100590.63
2022-10-12T03:21:01.676Z,100588.47
2022-10-12T03:23:28.998Z,100585.72
2022-10-12T03:25:56.570Z,100591.47
2022-10-12T03:28:24.091Z,100597.59
2022-10-12T03:30:51.490Z,100592.09
2022-10-12T03:33:19.440Z,100587.59
2022-10-12T03:35:46.823Z,100590.59
2022-10-12T03:38:14.636Z,100592.06
2022-10-12T03:40:42.345Z,100594.03
2022-10-12T03:43:09.768Z,100583.16
2022-10-12T03:45:37.659Z,100584.66
2022-10-12T03:48:06.792Z,100576.81
2022-10-12T03:50:35.035Z,100590.09
2022-10-12T03:53:03.299Z,100592.00
2022-10-12T03:55:31.034Z,100584.03
2022-10-12T03:57:59.971Z,100586.34
2022-10-12T04:00:28.287Z,100587.09
2022-10-12T04:02:55.910Z,100578.38
2022-10-12T04:05:23.307Z,100579.41
2022-10-12T04:07:50.912Z,100581.03
2022-10-12T04:10:18.478Z,100577.13
2022-10-12T04:12:46.133Z,100585.63
2022-10-12T04:15:13.717Z,100581.22
2022-10-12T04:17:41.602Z,100573.84
2022-10-12T04:20:09.840Z,100587.41
2022-10-12T04:22:37.468Z,100579.25
2022-10-12T04:25:05.497Z,100576.75
2022-10-12T04:27:32.812Z,100585.25
2022-10-12T04:30:00.194Z,100574.47
2022-10-12T04:32:27.758Z,100579.19
2022-10-12T04:34:55.111Z,100585.50
2022-10-12T04:37:22.441Z,100587.66
2022-10-12T04:39:50.041Z,100586.31
2022-10-12T04:42:17.353Z,100587.72
2022-10-12T04:44:44.782Z,100583.31
2022-10-12T04:47:12.383Z,100590.81
2022-10-12T04:49:39.678Z,100595.31
2022-10-12T04:52:07.017Z,100589.25
2022-10-12T04:54:34.604Z,100589.06
2022-10-12T04:57:01.933Z,100596.03
2022-10-12T04:59:33.393Z,100591.66
2022-10-12T05:02:01.030Z,100599.16
2022-10-12T05:04:28.401Z,100599.00
2022-10-12T05:06:55.799Z,100602.44
2022-10-12T05:09:23.392Z,100602.91
2022-10-12T05:11:50.696Z,100597.25
2022-10-12T05:14:18.088Z,100606.44
2022-10-12T05:16:45.701Z,100606.25
2022-10-12T05:19:13.180Z,100600.84
2022-10-12T05:21:40.541Z,100607.97
2022-10-12T05:24:08.355Z,100602.97
2022-10-12T05:26:35.767Z,100605.09
2022-10-12T05:29:03.121Z,100609.09
2022-10-12T05:31:30.840Z,100604.59
2022-10-12T05:33:58.185Z,100608.50
2022-10-12T05:36:29.462Z,100605.38
2022-10-12T05:38:57.260Z,100604.31
2022-10-12T05:41:24.583Z,100611.72
2022-10-12T05:43:53.344Z,100615.22
2022-10-12T05:46:21.026Z,100619.91
2022-10-12T05:48:48.380Z,100615.81
2022-10-12T05:51:15.842Z,100612.19
2022-10-12T05:53:43.434Z,100620.22
2022-10-12T05:56:10.764Z,100614.84
2022-10-12T05:58:38.105Z,100615.78
2022-10-12T06:01:07.071Z,100619.53
2022-10-12T06:03:35.099Z,100614.72
2022-10-12T06:06:03.535Z,100616.03
2022-10-12T06:08:30.997Z,100614.44
2022-10-12T06:10:58.584Z,100617.91
2022-10-12T06:13:26.017Z,100616.37
2022-10-12T06:15:53.385Z,100625.84
2022-10-12T06:18:21.263Z,100617.63
2022-10-12T06:20:49.828Z,100614.97
2022-10-12T06:23:17.401Z,100625.41
2022-10-12T06:25:48.500Z,100616.56
2022-10-12T06:28:16.287Z,100626.56
2022-10-12T06:30:43.732Z,100631.50
2022-10-12T06:33:11.326Z,100628.53
2022-10-12T06:35:38.693Z,100642.22
2022-10-12T06:38:06.034Z,100639.50
2022-10-12T06:40:33.606Z,100638.62
2022-10-12T06:43:02.763Z,100642.12
2022-10-12T06:45:30.187Z,100641.75
2022-10-12T06:47:57.844Z,100643.72
2022-10-12T06:50:47.088Z,100646.75
2022-10-12T06:53:23.702Z,100645.81
2022-10-12T06:55:52.000Z,100637.50
2022-10-12T06:58:20.901Z,100656.25
2022-10-12T07:00:52.567Z,100647.13
2022-10-12T07:03:20.513Z,100644.41
2022-10-12T07:05:47.849Z,100654.25
2022-10-12T07:08:15.178Z,100646.16
2022-10-12T07:10:42.739Z,100652.19
2022-10-12T07:13:10.098Z,100644.69
2022-10-12T07:15:37.520Z,100641.78
2022-10-12T07:18:05.132Z,100643.75
2022-10-12T07:20:32.432Z,100650.31
2022-10-12T07:22:59.859Z,100644.41
2022-10-12T07:25:27.444Z,100638.72
2022-10-12T07:27:54.749Z,100634.38
2022-10-12T07:30:22.090Z,100633.03
2022-10-12T07:32:49.706Z,100635.84
2022-10-12T07:35:17.215Z,100640.13
2022-10-12T07:37:44.544Z,100627.34
2022-10-12T07:40:12.139Z,100625.91
2022-10-12T07:42:59.147Z,100636.00
2022-10-12T07:45:30.165Z,100632.12
2022-10-12T07:47:57.538Z,100632.09
2022-10-12T07:50:25.583Z,100633.13
2022-10-12T07:52:53.241Z,100629.78
2022-10-12T07:55:20.696Z,100627.13
2022-10-12T07:57:47.999Z,100632.53
2022-10-12T08:00:15.724Z,100631.41
2022-10-12T08:02:43.349Z,100625.97
2022-10-12T08:05:10.797Z,100634.31
2022-10-12T08:07:38.426Z,100635.22
2022-10-12T08:10:06.636Z,100632.72
2022-10-12T08:12:33.953Z,100638.72
2022-10-12T08:15:01.280Z,100632.09
2022-10-12T08:17:28.910Z,100635.16
2022-10-12T08:19:56.237Z,100640.81
2022-10-12T08:22:23.588Z,100635.12
2022-10-12T08:24:51.210Z,100632.03
2022-10-12T08:27:18.534Z,100632.41
2022-10-12T08:29:46.392Z,100633.13
2022-10-12T08:32:13.980Z,100626.38
2022-10-12T08:34:41.330Z,100623.63
2022-10-12T08:37:08.662Z,100623.81
2022-10-12T08:39:36.320Z,100620.50
2022-10-12T08:42:26.654Z,100622.97
2022-10-12T08:45:35.366Z,100626.91
2022-10-12T08:48:18.605Z,100616.28
2022-10-12T08:50:52.033Z,100611.78
2022-10-12T08:53:36.283Z,100617.94
2022-10-12T08:56:03.927Z,100622.75
2022-10-12T08:58:36.545Z,100622.84
2022-10-12T09:01:22.961Z,100625.78
2022-10-12T09:04:18.130Z,100628.75
2022-10-12T09:07:00.776Z,100627.94
2022-10-12T09:09:52.408Z,100622.34
2022-10-12T09:12:44.385Z,100623.41
2022-10-12T09:15:17.093Z,100621.28
2022-10-12T09:17:53.514Z,100622.25
2022-10-12T09:20:35.204Z,100625.47
2022-10-12T09:23:23.837Z,100621.06
2022-10-12T09:25:53.000Z,100622.25
2022-10-12T09:28:46.699Z,100622.12
2022-10-12T09:31:45.160Z,100629.00
2022-10-12T09:34:16.710Z,100624.13
2022-10-12T09:36:46.262Z,100622.12
2022-10-12T09:39:19.334Z,100621.38
2022-10-12T09:41:48.198Z,100616.78
2022-10-12T09:44:31.691Z,100623.56
2022-10-12T09:46:59.804Z,100616.25
2022-10-12T09:49:43.818Z,100623.66
2022-10-12T09:52:11.574Z,100621.53
2022-10-12T09:54:52.293Z,100615.72
2022-10-12T09:57:39.720Z,100614.22
2022-10-12T10:00:28.493Z,100623.59
2022-10-12T10:02:56.280Z,100618.69
2022-10-12T10:05:26.625Z,100622.03
2022-10-12T10:07:54.181Z,100626.72
2022-10-12T10:10:29.782Z,100621.06
2022-10-12T10:12:59.048Z,100619.63
2022-10-12T10:15:33.616Z,100615.50
2022-10-12T10:18:05.337Z,100615.72
2022-10-12T10:20:43.388Z,100614.13
2022-10-12T10:23:27.753Z,100607.66
2022-10-12T10:26:01.904Z,100612.69
2022-10-12T10:28:30.591Z,100613.87
2022-10-12T10:31:06.090Z,100612.31
2022-10-12T10:33:34.693Z,100611.03
2022-10-12T10:36:06.284Z,100619.75
2022-10-12T10:38:53.282Z,100602.53
2022-10-12T10:41:20.948Z,100612.12
2022-10-12T10:43:48.549Z,100614.31
2022-10-12T10:46:16.645Z,100615.84
2022-10-12T10:48:59.016Z,100610.31
2022-10-12T10:51:49.435Z,100610.66
2022-10-12T10:54:22.834Z,100600.75
2022-10-12T10:56:56.674Z,100602.91
2022-10-12T10:59:39.584Z,100602.00
2022-10-12T11:02:16.485Z,100602.63
2022-10-12T11:04:45.584Z,100609.25
2022-10-12T11:07:22.073Z,100599.16
2022-10-12T11:09:53.060Z,100601.41
2022-10-12T11:12:31.331Z,100607.09
2022-10-12T11:15:05.674Z,100603.06
2022-10-12T11:17:42.323Z,100596.63
2022-10-12T11:20:37.371Z,100603.59
2022-10-12T11:23:10.601Z,100613.94
2022-10-12T11:26:01.615Z,100606.53
2022-10-12T11:28:31.077Z,100601.09
2022-10-12T11:30:58.778Z,100598.47
2022-10-12T11:33:38.405Z,100596.25
2022-10-12T11:36:07.890Z,100601.12
2022-10-12T11:38:45.138Z,100584.12
2022-10-12T11:41:35.469Z,100589.22
2022-10-12T11:44:37.257Z,100590.50
2022-10-12T11:47:08.792Z,100590.41
2022-10-12T11:49:53.864Z,100587.78
2022-10-12T11:52:26.308Z,100593.00
2022-10-12T11:55:19.355Z,100592.38
2022-10-12T11:57:46.985Z,100593.44
2022-10-12T12:00:18.193Z,100584.94
2022-10-12T12:03:23.826Z,100578.59
2022-10-12T12:05:51.178Z,100579.19
2022-10-12T12:08:40.617Z,100574.00
2022-10-12T12:11:28.300Z,100575.53
2022-10-12T12:14:25.251Z,100584.19
2022-10-12T12:17:14.073Z,100579.75
2022-10-12T12:19:43.101Z,100582.22
2022-10-12T12:22:49.644Z,100571.59
2022-10-12T12:25:19.891Z,100567.13
2022-10-12T12:27:57.358Z,100559.37
2022-10-12T12:30:30.483Z,100562.91
2022-10-12T12:33:20.907Z,100561.38
2022-10-12T12:35:58.980Z,100563.16
2022-10-12T12:38:30.157Z,100564.53
2022-10-12T12:41:11.566Z,100558.91
2022-10-12T12:44:00.098Z,100556.41
2022-10-12T12:46:52.388Z,100561.22
2022-10-12T12:49:38.610Z,100559.75
2022-10-12T12:52:10.679Z,100558.66
2022-10-12T12:54:43.519Z,100552.19
2022-10-12T12:57:19.519Z,100555.03
2022-10-12T13:00:06.782Z,100555.13
2022-10-12T13:02:53.486Z,100554.69
2022-10-12T13:05:20.790Z,100553.69
2022-10-12T13:08:15.732Z,100557.69
2022-10-12T13:11:01.051Z,100552.66
2022-10-12T13:13:39.057Z,100550.97
2022-10-12T13:19:22.336Z,100559.31
2022-10-12T13:21:51.325Z,100546.28
2022-10-12T13:24:30.153Z,100542.59
2022-10-12T13:27:02.817Z,100549.00
2022-10-12T13:29:41.670Z,100547.03
2022-10-12T13:32:18.636Z,100538.75
2022-10-12T13:34:46.088Z,100544.53
2022-10-12T13:37:14.752Z,100546.88
2022-10-12T13:39:44.876Z,100548.91
2022-10-12T13:42:14.659Z,100546.47
2022-10-12T13:44:42.293Z,100545.47
2022-10-12T13:47:24.404Z,100547.94
2022-10-12T13:49:52.120Z,100540.97
2022-10-12T13:52:27.263Z,100540.25
2022-10-12T13:54:59.043Z,100534.38
2022-10-12T13:57:38.441Z,100538.50
2022-10-12T14:00:10.378Z,100540.50
2022-10-12T14:02:37.970Z,100529.16
2022-10-12T14:05:11.890Z,100542.16
2022-10-12T14:07:39.472Z,100537.34
2022-10-12T14:10:08.470Z,100533.16
2022-10-12T14:12:35.905Z,100532.88
2022-10-12T14:15:04.104Z,100532.37
2022-10-12T14:17:31.583Z,100532.03
2022-10-12T14:20:15.696Z,100536.00
2022-10-12T14:22:46.722Z,100532.72
2022-10-12T14:25:16.891Z,100536.53
2022-10-12T14:27:44.514Z,100533.53
2022-10-12T14:30:20.826Z,100527.00
2022-10-12T14:32:48.790Z,100530.91
2022-10-12T14:35:18.775Z,100531.28
2022-10-12T14:37:46.472Z,100533.59
2022-10-12T14:40:33.579Z,100522.72
2022-10-12T14:43:09.413Z,100525.41
2022-10-12T14:45:37.029Z,100523.22
2022-10-12T14:48:05.592Z,100529.47
2022-10-12T14:50:32.984Z,100527.75
2022-10-12T14:53:04.809Z,100524.69
2022-10-12T14:55:33.398Z,100521.16
2022-10-12T14:58:01.291Z,100531.25
2022-10-12T15:00:30.935Z,100525.88
2022-10-12T15:02:58.736Z,100525.28
2022-10-12T15:05:28.934Z,100523.56
2022-10-12T15:07:56.243Z,100524.50
2022-10-12T15:10:23.750Z,100527.41
2022-10-12T15:12:51.420Z,100529.28
2022-10-12T15:15:30.346Z,100523.81
2022-10-12T15:17:58.249Z,100529.06
2022-10-12T15:20:26.610Z,100530.94
2022-10-12T15:22:53.957Z,100538.44
2022-10-12T15:25:59.877Z,100538.13
2022-10-12T15:28:30.348Z,100541.87
2022-10-12T15:31:16.615Z,100545.09
2022-10-12T15:33:44.645Z,100533.28
2022-10-12T15:36:12.259Z,100537.50
2022-10-12T15:38:39.666Z,100535.41
2022-10-12T15:41:15.947Z,100534.63
2022-10-12T15:43:43.664Z,100536.72
2022-10-12T15:46:13.970Z,100535.91
2022-10-12T15:48:41.809Z,100528.00
2022-10-12T15:51:17.133Z,100531.97
2022-10-12T15:53:44.961Z,100535.72
2022-10-12T15:56:13.357Z,100533.03
2022-10-12T15:58:40.855Z,100528.09
2022-10-12T16:01:14.355Z,100532.03
2022-10-12T16:03:42.125Z,100530.97
2022-10-12T16:06:09.493Z,100534.50
2022-10-12T16:08:36.915Z,100542.59
2022-10-12T16:11:05.441Z,100537.22
2022-10-12T16:13:32.832Z,100542.13
2022-10-12T16:16:00.484Z,100545.03
2022-10-12T16:18:28.148Z,100535.91
2022-10-12T16:20:55.445Z,100536.50
2022-10-12T16:23:27.467Z,100535.22
2022-10-12T16:25:55.414Z,100539.59
2022-10-12T16:28:23.700Z,100539.81
2022-10-12T16:30:51.682Z,100536.22
2022-10-12T16:33:19.361Z,100549.47
2022-10-12T16:35:46.809Z,100550.19
2022-10-12T16:38:15.121Z,100552.69
2022-10-12T16:40:42.696Z,100546.56
2022-10-12T16:43:10.060Z,100539.78
2022-10-12T16:45:37.548Z,100535.47
2022-10-12T16:48:05.241Z,100539.22
2022-10-12T16:50:32.602Z,100544.03
2022-10-12T16:53:00.011Z,100543.22
2022-10-12T16:55:27.635Z,100542.47
2022-10-12T16:57:55.004Z,100547.09
2022-10-12T17:00:22.365Z,100547.12
2022-10-12T17:02:51.193Z,100559.59
2022-10-12T17:05:20.293Z,100561.00
2022-10-12T17:07:47.644Z,100567.34
2022-10-12T17:10:15.267Z,100559.31
2022-10-12T17:12:42.584Z,100570.00
2022-10-12T17:15:10.108Z,100559.00
2022-10-12T17:17:37.877Z,100554.63
2022-10-12T17:20:05.573Z,100554.69
2022-10-12T17:22:32.962Z,100554.72
2022-10-12T17:25:00.543Z,100553.91
2022-10-12T17:27:31.360Z,100559.06
2022-10-12T17:29:59.633Z,100563.22
2022-10-12T17:32:27.253Z,100561.72
2022-10-12T17:34:54.776Z,100561.75
2022-10-12T17:37:22.158Z,100563.28
2022-10-12T17:39:50.350Z,100569.69
2022-10-12T17:42:18.584Z,100570.91
2022-10-12T17:44:46.261Z,100575.72
2022-10-12T17:47:13.884Z,100567.75
2022-10-12T17:49:41.360Z,100567.66
2022-10-12T17:52:09.850Z,100571.28
2022-10-12T17:54:37.681Z,100574.06
2022-10-12T17:57:05.045Z,100579.22
2022-10-12T17:59:32.412Z,100572.25
2022-10-12T18:02:00.025Z,100578.97
2022-10-12T18:04:27.650Z,100576.22
2022-10-12T18:06:54.984Z,100582.81
2022-10-12T18:09:22.277Z,100577.78
2022-10-12T18:11:49.869Z,100576.88
2022-10-12T18:14:17.321Z,100573.63
2022-10-12T18:16:44.773Z,100580.31
2022-10-12T18:19:12.451Z,100575.78
2022-10-12T18:21:40.053Z,100574.06
2022-10-12T18:24:12.339Z,100572.59
2022-10-12T18:26:43.995Z,100571.53
2022-10-12T18:29:11.377Z,100578.31
2022-10-12T18:31:38.851Z,100573.56
2022-10-12T18:34:06.560Z,100573.63
2022-10-12T18:36:33.917Z,100576.13
2022-10-12T18:39:01.798Z,100578.88
2022-10-12T18:41:29.429Z,100584.31
2022-10-12T18:44:00.677Z,100583.56
2022-10-12T18:46:29.950Z,100590.16
2022-10-12T18:48:57.540Z,100581.12
2022-10-12T18:51:29.056Z,100589.31
2022-10-12T18:53:56.834Z,100594.13
2022-10-12T18:56:24.511Z,100583.41
2022-10-12T18:58:51.952Z,100587.19
2022-10-12T19:01:24.446Z,100584.16
2022-10-12T19:03:52.224Z,100590.50
2022-10-12T19:06:21.696Z,100589.31
2022-10-12T19:08:49.417Z,100592.28
2022-10-12T19:11:18.663Z,100595.72
2022-10-12T19:13:54.840Z,100590.53
2022-10-12T19:16:22.351Z,100598.66
2022-10-12T19:18:49.836Z,100592.41
2022-10-12T19:21:19.258Z,100599.78
2022-10-12T19:23:46.904Z,100597.28
2022-10-12T19:26:18.896Z,100593.88
2022-10-12T19:28:46.680Z,100598.84
2022-10-12T19:31:16.083Z,100609.19
2022-10-12T19:33:43.647Z,100600.91
2022-10-12T19:36:12.229Z,100600.81
2022-10-12T19:38:39.678Z,100600.94
2022-10-12T19:41:07.179Z,100598.09
2022-10-12T19:43:35.295Z,100593.84
2022-10-12T19:46:07.935Z,100595.94
2022-10-12T19:48:36.115Z,100603.88
2022-10-12T19:51:07.842Z,100597.50
2022-10-12T19:53:35.217Z,100603.44
2022-10-12T19:56:04.500Z,100595.41
2022-10-12T19:58:32.023Z,100596.28
2022-10-12T20:01:06.708Z,100590.16
2022-10-12T20:03:35.085Z,100594.28
2022-10-12T20:06:06.081Z,100591.19
2022-10-12T20:08:33.757Z,100596.41
2022-10-12T20:11:01.187Z,100598.12
2022-10-12T20:13:28.909Z,100601.50
2022-10-12T20:15:56.734Z,100601.31
2022-10-12T20:18:24.141Z,100603.75
2022-10-12T20:20:51.450Z,100601.88
2022-10-12T20:23:19.244Z,100603.69
2022-10-12T20:25:51.793Z,100602.97
2022-10-12T20:28:19.591Z,100613.53
2022-10-12T20:30:47.194Z,100611.62
2022-10-12T20:33:14.932Z,100609.56
2022-10-12T20:35:47.210Z,100609.72
2022-10-12T20:38:14.844Z,100607.97
2022-10-12T20:40:42.181Z,100603.44
2022-10-12T20:43:09.937Z,100607.63
2022-10-12T20:45:37.274Z,100606.09
2022-10-12T20:48:04.844Z,100607.13
2022-10-12T20:50:32.567Z,100615.09
2022-10-12T20:52:59.856Z,100616.19
2022-10-12T20:55:27.157Z,100617.19
2022-10-12T20:57:54.765Z,100619.09
2022-10-12T21:00:22.080Z,100613.22
2022-10-12T21:02:49.394Z,100614.78
2022-10-12T21:05:17.076Z,100622.06
2022-10-12T21:07:44.375Z,100623.87
2022-10-12T21:10:11.753Z,100619.91
2022-10-12T21:12:39.313Z,100623.81
2022-10-12T21:15:06.978Z,100620.22
2022-10-12T21:17:34.352Z,100619.19
2022-10-12T21:20:01.950Z,100622.91
2022-10-12T21:22:29.273Z,100614.44
2022-10-12T21:24:56.716Z,100610.22
2022-10-12T21:27:24.363Z,100614.78
2022-10-12T21:29:51.822Z,100611.09
2022-10-12T21:32:19.499Z,100612.31
2022-10-12T21:34:48.361Z,100609.31
2022-10-12T21:37:15.677Z,100610.03
2022-10-12T21:39:43.014Z,100602.91
2022-10-12T21:42:10.593Z,100610.56
2022-10-12T21:44:37.895Z,100612.09
2022-10-12T21:47:05.311Z,100613.63
2022-10-12T21:49:32.883Z,100606.75
2022-10-12T21:52:00.197Z,100609.00
2022-10-12T21:54:27.592Z,100598.66
2022-10-12T21:56:55.186Z,100601.78
2022-10-12T21:59:23.612Z,100604.59
2022-10-12T22:01:50.952Z,100601.91
2022-10-12T22:04:18.526Z,100606.00
2022-10-12T22:06:45.885Z,100604.41
2022-10-12T22:09:16.468Z,100609.28
2022-10-12T22:11:44.114Z,100600.13
2022-10-12T22:14:13.477Z,100609.81
2022-10-12T22:16:40.922Z,100601.84
2022-10-12T22:19:08.585Z,100609.44
2022-10-12T22:21:36.354Z,100609.69
2022-10-12T22:24:03.930Z,100614.88
2022-10-12T22:26:31.742Z,100620.19
2022-10-12T22:29:01.834Z,100611.34
2022-10-12T22:31:29.176Z,100619.00
2022-10-12T22:33:56.821Z,100616.94
2022-10-12T22:36:24.173Z,100610.09
2022-10-12T22:38:51.476Z,100611.28
2022-10-12T22:41:20.331Z,100603.94
2022-10-12T22:43:48.516Z,100602.50
2022-10-12T22:46:16.128Z,100601.28
2022-10-12T22:48:43.757Z,100605.75
2022-10-12T22:51:16.097Z,100598.09
2022-10-12T22:53:43.679Z,100597.22
2022-10-12T22:56:16.781Z,100597.13
2022-10-12T22:58:45.058Z,100593.84
2022-10-12T23:01:16.900Z,100603.16
2022-10-12T23:03:45.486Z,100603.91
2022-10-12T23:06:15.002Z,100604.06
2022-10-12T23:08:42.528Z,100602.03
2022-10-12T23:11:12.122Z,100604.84
2022-10-12T23:13:39.484Z,100605.53
2022-10-12T23:16:08.437Z,100596.97
2022-10-12T23:18:36.197Z,100604.59
2022-10-12T23:21:10.940Z,100603.50
2022-10-12T23:23:39.099Z,100604.13
2022-10-12T23:26:08.039Z,100599.50
2022-10-12T23:28:35.580Z,100598.44
2022-10-12T23:31:06.035Z,100605.50
2022-10-12T23:33:33.722Z,100608.97
2022-10-12T23:36:06.942Z,100607.22
2022-10-12T23:38:34.903Z,100606.84
2022-10-12T23:41:02.277Z,100605.78
2022-10-12T23:43:29.653Z,100607.13
2022-10-12T23:46:02.400Z,100608.72
2022-10-12T23:48:29.760Z,100614.38
2022-10-12T23:50:57.405Z,100615.94
2022-10-12T23:53:24.982Z,100609.69
2022-10-12T23:55:52.392Z,100609.56
2022-10-12T23:58:20.160Z,100608.22
